Terminal Aerodrome Forecast
Issued by NWS

Home | Current Version | Previous Version | Text Only | Print | Product List | Glossary On
Versions: 1 2 3 4 5 6 7 8 9 10 11 12
735
FTUS43 KIND 071720
TAFBMG
TAF
KBMG 071720Z 0718/0818 23015G24KT P6SM FEW150
     FM072300 22009KT P6SM SCT040 BKN150
     FM080400 26005KT P6SM SCT025 OVC040
     FM081400 27008KT 4SM -SN OVC015=

USA.gov is the U.S. government's official web portal to all federal, state and local government web resources and services.